Time;durP1;ratioP1;P1;durP2;ratioP2;P2;SDS_P1;SDS_P2;PMS_P1;PMS_P2;Temp;Humidity;BMP_temperature;BMP_pressure;BME280_temperature;BME280_humidity;BME280_pressure;Samples;Min_cycle;Max_cycle;Signal;HPM_P1;HPM_P2
2023/07/12 00:03:14;;;;;;;;;;;;;;;28.22;52.70;101298.38;5026326;28;19979;-87
2023/07/12 00:08:43;;;;;;;;;;;;;;;28.20;52.43;101300.16;5013695;28;19920;-89
2023/07/12 00:14:11;;;;;;;;;;;;;;;28.20;52.51;101297.50;5027539;28;19924;-88
2023/07/12 00:19:40;;;;;;;;;;;;;;;28.19;52.42;101293.03;5026967;28;19924;-86
2023/07/12 00:25:08;;;;;;;;;;;;;;;28.16;52.36;101292.16;5029947;28;19967;-88
2023/07/12 00:30:37;;;;;;;;;;;;;;;28.15;52.45;101287.69;5031056;28;19927;-87
2023/07/12 00:36:08;;;;;;;;;;;;;;;28.13;52.43;101282.34;5024825;28;20418;-88
2023/07/12 00:41:46;;;;;;;;;;;;;;;28.15;52.54;101275.19;5030408;28;19963;-88
2023/07/12 00:47:14;;;;;;;;;;;;;;;28.13;52.29;101287.72;5034988;28;20055;-89
2023/07/12 00:52:42;;;;;;;;;;;;;;;28.13;52.49;101286.81;5026313;28;19967;-89
2023/07/12 00:58:10;;;;;;;;;;;;;;;28.13;52.52;101292.19;5024112;28;20345;-87
2023/07/12 01:03:39;;;;;;;;;;;;;;;28.12;52.49;101285.06;5031385;28;19928;-88
2023/07/12 01:09:11;;;;;;;;;;;;;;;28.10;52.42;101279.69;5016427;28;19920;-88
2023/07/12 01:14:40;;;;;;;;;;;;;;;28.06;52.68;101277.06;5014291;28;19983;-88
2023/07/12 01:20:08;;;;;;;;;;;;;;;28.04;52.65;101279.75;5027498;28;19967;-86
2023/07/12 01:25:38;;;;;;;;;;;;;;;28.07;52.33;101289.56;5030619;28;20018;-88
2023/07/12 01:31:06;;;;;;;;;;;;;;;28.01;52.60;101296.78;5026092;28;20389;-87
2023/07/12 01:36:35;;;;;;;;;;;;;;;28.05;52.52;101289.59;5025156;28;19919;-88
2023/07/12 01:42:03;;;;;;;;;;;;;;;28.02;52.37;101278.88;5028523;28;19916;-87
2023/07/12 01:47:32;;;;;;;;;;;;;;;27.98;52.71;101283.41;5022351;28;19921;-88
2023/07/12 01:53:00;;;;;;;;;;;;;;;27.99;52.33;101281.59;5023659;28;20298;-88
2023/07/12 01:58:29;;;;;;;;;;;;;;;27.97;52.40;101291.47;5025427;28;20433;-87
2023/07/12 02:03:57;;;;;;;;;;;;;;;27.93;52.32;101290.59;5028709;28;20012;-87
2023/07/12 02:09:33;;;;;;;;;;;;;;;27.94;52.34;101292.41;5019121;28;19916;-88
2023/07/12 02:15:01;;;;;;;;;;;;;;;27.96;52.43;101298.63;5031884;28;19917;-87
2023/07/12 02:20:29;;;;;;;;;;;;;;;27.94;52.30;101308.50;5020344;28;19984;-87
2023/07/12 02:25:58;;;;;;;;;;;;;;;27.94;52.27;101310.28;5025019;28;19924;-87
2023/07/12 02:31:28;;;;;;;;;;;;;;;27.92;52.29;101313.00;5029122;28;20010;-87
2023/07/12 02:36:56;;;;;;;;;;;;;;;27.90;52.28;101322.84;5031735;28;19915;-87
2023/07/12 02:42:24;;;;;;;;;;;;;;;27.90;52.22;101332.69;5027894;28;20314;-88
2023/07/12 02:47:52;;;;;;;;;;;;;;;27.86;52.25;101336.31;5033195;28;20381;-88
2023/07/12 02:53:21;;;;;;;;;;;;;;;27.86;52.25;101341.69;5022151;28;20003;-89
2023/07/12 02:58:49;;;;;;;;;;;;;;;27.85;52.33;101337.16;5019140;28;19936;-89
2023/07/12 03:04:17;;;;;;;;;;;;;;;27.82;52.66;101349.72;5019421;28;19976;-88
2023/07/12 03:09:46;;;;;;;;;;;;;;;27.80;52.38;101353.31;5028113;28;19943;-88
2023/07/12 03:15:14;;;;;;;;;;;;;;;27.76;52.54;101357.81;5022740;28;19919;-89
2023/07/12 03:20:42;;;;;;;;;;;;;;;27.77;52.55;101369.44;5028229;28;19916;-88
2023/07/12 03:26:11;;;;;;;;;;;;;;;27.75;52.54;101377.53;5017506;28;19924;-89
2023/07/12 03:31:40;;;;;;;;;;;;;;;27.73;52.46;101384.69;5036980;28;19951;-89
2023/07/12 03:37:08;;;;;;;;;;;;;;;27.70;52.38;101398.13;5014683;28;20517;-87
2023/07/12 03:39:45;;;;;;;;;;;;;;;27.73;52.29;101399.88;4988685;28;20026;-88
2023/07/12 03:42:10;;;;;;;;;;;;;;;27.73;52.60;101392.75;5008373;28;19913;-84
2023/07/12 03:47:38;;;;;;;;;;;;;;;27.73;52.43;101402.56;5020740;28;19920;-84
2023/07/12 03:50:19;;;;;;;;;;;;;;;27.73;52.40;101408.84;5027154;28;20274;-85
2023/07/12 03:53:16;;;;;;;;;;;;;;;27.73;52.24;101406.16;5031192;28;20355;-85
2023/07/12 03:55:42;;;;;;;;;;;;;;;27.73;52.04;101397.19;5009080;28;20416;-84
2023/07/12 04:01:11;;;;;;;;;;;;;;;27.70;52.25;101414.22;5035471;28;20005;-84
2023/07/12 04:06:39;;;;;;;;;;;;;;;27.68;52.42;101418.69;5032699;28;19928;-85
2023/07/12 04:12:07;;;;;;;;;;;;;;;27.69;52.54;101424.97;5025813;28;19920;-85
2023/07/12 04:17:35;;;;;;;;;;;;;;;27.64;52.53;101438.41;5021051;28;19982;-85
2023/07/12 04:23:04;;;;;;;;;;;;;;;27.63;52.52;101442.00;5016548;28;20005;-84
2023/07/12 04:28:49;;;;;;;;;;;;;;;27.61;52.66;101452.72;5027814;28;19944;-84
2023/07/12 04:34:17;;;;;;;;;;;;;;;27.63;52.42;101444.69;5025689;28;19932;-86
2023/07/12 04:39:45;;;;;;;;;;;;;;;27.64;52.26;101448.25;5022400;28;19916;-85
2023/07/12 04:45:13;;;;;;;;;;;;;;;27.62;52.23;101448.25;5020813;28;19920;-86
2023/07/12 04:50:43;;;;;;;;;;;;;;;27.62;51.84;101442.88;5027634;28;20394;-87
2023/07/12 04:56:11;;;;;;;;;;;;;;;27.60;52.44;101445.59;5029893;28;19932;-87
2023/07/12 05:01:40;;;;;;;;;;;;;;;27.58;52.33;101459.91;5019088;28;19924;-86
2023/07/12 05:07:09;;;;;;;;;;;;;;;27.54;52.35;101461.72;5025635;28;19967;-86
2023/07/12 05:12:38;;;;;;;;;;;;;;;27.59;51.65;101464.38;5036399;28;19919;-85
2023/07/12 05:18:06;;;;;;;;;;;;;;;27.58;52.38;101473.31;5023005;28;19971;-84
2023/07/12 05:23:36;;;;;;;;;;;;;;;27.57;52.02;101496.56;5028966;28;19917;-85
2023/07/12 05:29:05;;;;;;;;;;;;;;;27.58;52.37;101501.06;5021028;28;19924;-86
2023/07/12 05:34:33;;;;;;;;;;;;;;;27.59;52.27;101500.16;5027271;28;19916;-86
2023/07/12 05:40:03;;;;;;;;;;;;;;;27.61;52.07;101508.19;5025385;28;19936;-85
2023/07/12 05:45:32;;;;;;;;;;;;;;;27.61;51.71;101498.34;5027691;28;19968;-85
2023/07/12 05:51:01;;;;;;;;;;;;;;;27.57;51.84;101519.84;5025434;28;19924;-85
2023/07/12 05:56:29;;;;;;;;;;;;;;;27.57;51.45;101520.72;5031311;28;19948;-83
2023/07/12 06:01:57;;;;;;;;;;;;;;;27.54;51.73;101527.91;5026645;28;20290;-86
2023/07/12 06:07:25;;;;;;;;;;;;;;;27.53;51.41;101528.81;5021890;28;19920;-85
2023/07/12 06:12:54;;;;;;;;;;;;;;;27.52;51.64;101537.78;5027993;28;19999;-87
2023/07/12 06:18:22;;;;;;;;;;;;;;;27.45;51.70;101547.59;5039760;28;19916;-87
2023/07/12 06:23:59;;;;;;;;;;;;;;;27.42;52.02;101555.66;5033434;28;20404;-86
2023/07/12 06:29:35;;;;;;;;;;;;;;;27.44;51.63;101566.41;5032829;28;19966;-86
2023/07/12 06:35:42;;;;;;;;;;;;;;;27.46;52.03;101567.28;5032009;28;19916;-87
2023/07/12 06:41:15;;;;;;;;;;;;;;;27.48;51.57;101574.44;5026485;28;19959;-86
2023/07/12 06:46:45;;;;;;;;;;;;;;;27.45;51.86;101562.81;5031356;28;19963;-85
2023/07/12 06:52:14;;;;;;;;;;;;;;;27.42;51.78;101553.00;5029235;28;20633;-84
2023/07/12 06:54:53;;;;;;;;;;;;;;;27.48;51.75;101552.09;5030092;28;20385;-88
2023/07/12 07:00:24;;;;;;;;;;;;;;;27.50;51.69;101561.03;5022418;28;19920;-86
2023/07/12 07:05:53;;;;;;;;;;;;;;;27.51;51.79;101569.03;5026890;28;19924;-87
2023/07/12 07:11:47;;;;;;;;;;;;;;;27.56;51.45;101575.31;5015920;28;19916;-85
2023/07/12 07:23:08;;;;;;;;;;;;;;;27.60;51.60;101569.03;4973540;28;19997;-86
2023/07/12 07:28:37;;;;;;;;;;;;;;;27.63;51.68;101556.50;4971831;28;19937;-86
2023/07/12 07:34:05;;;;;;;;;;;;;;;27.62;51.65;101579.75;4973717;28;20362;-86
2023/07/12 07:39:34;;;;;;;;;;;;;;;27.64;51.28;101579.75;4972181;28;19988;-85
2023/07/12 07:45:02;;;;;;;;;;;;;;;27.66;51.39;101588.69;4970740;28;19925;-87
2023/07/12 07:50:41;;;;;;;;;;;;;;;27.63;51.38;101589.59;4969158;28;19956;-89
2023/07/12 07:56:08;;;;;;;;;;;;;;;27.61;51.44;101588.69;4976093;28;19921;-86
2023/07/12 08:01:37;;;;;;;;;;;;;;;27.66;51.17;101594.03;5018249;28;19920;-85
2023/07/12 08:07:05;;;;;;;;;;;;;;;27.68;51.09;101603.88;5022800;28;20043;-84
2023/07/12 08:12:34;;;;;;;;;;;;;;;27.67;51.30;101598.53;5032828;28;19970;-87
2023/07/12 08:18:03;;;;;;;;;;;;;;;27.59;51.29;101588.69;5027646;28;19920;-85
2023/07/12 08:23:32;;;;;;;;;;;;;;;27.63;51.16;101592.28;5026962;28;19970;-85
2023/07/12 08:29:03;;;;;;;;;;;;;;;27.64;51.41;101604.78;5024088;28;19940;-89
2023/07/12 08:34:31;;;;;;;;;;;;;;;27.65;51.43;101600.31;5023022;28;19985;-91
2023/07/12 08:40:00;;;;;;;;;;;;;;;27.69;52.04;101603.00;5032720;28;20032;-89
2023/07/12 08:45:29;;;;;;;;;;;;;;;27.70;51.97;101604.75;5027933;28;19919;-89
2023/07/12 08:50:58;;;;;;;;;;;;;;;27.67;52.35;101606.59;5026562;28;19956;-86
2023/07/12 08:56:26;;;;;;;;;;;;;;;27.72;51.99;101608.31;5032696;28;19939;-88
2023/07/12 09:01:58;;;;;;;;;;;;;;;27.72;51.87;101602.06;5027353;28;19951;-92
2023/07/12 09:07:27;;;;;;;;;;;;;;;27.74;52.14;101598.47;5028367;28;19921;-89
2023/07/12 09:12:56;;;;;;;;;;;;;;;27.74;52.05;101598.47;5028622;28;19917;-90
2023/07/12 09:18:37;;;;;;;;;;;;;;;27.75;52.17;101599.38;5018160;28;19951;-89
2023/07/12 09:33:37;;;;;;;;;;;;;;;27.69;53.31;101602.09;5030663;28;19977;-91
2023/07/12 09:36:15;;;;;;;;;;;;;;;27.65;53.80;101598.53;5020945;28;19920;-90
2023/07/12 09:41:50;;;;;;;;;;;;;;;27.67;53.95;101615.53;5037906;28;19936;-86
2023/07/12 09:44:30;;;;;;;;;;;;;;;27.65;54.03;101616.44;5010277;28;19924;-91
2023/07/12 09:49:58;;;;;;;;;;;;;;;27.66;53.27;101612.84;5026317;28;19985;-91
2023/07/12 09:52:27;;;;;;;;;;;;;;;27.75;52.73;101602.06;5013008;28;19928;-89
2023/07/12 09:54:53;;;;;;;;;;;;;;;27.80;52.76;101614.56;4990689;28;19917;-87
2023/07/12 09:57:34;;;;;;;;;;;;;;;27.80;52.61;101608.31;5026845;28;19913;-89
2023/07/12 10:03:02;;;;;;;;;;;;;;;27.83;52.78;101621.72;5021928;28;19928;-91
2023/07/12 10:05:28;;;;;;;;;;;;;;;27.84;52.54;101623.50;5012637;28;20355;-91
2023/07/12 10:08:14;;;;;;;;;;;;;;;27.86;52.69;101627.13;4999275;28;19956;-93
2023/07/12 10:13:49;;;;;;;;;;;;;;;27.91;52.80;101636.03;5033571;28;19984;-91
2023/07/12 10:19:31;;;;;;;;;;;;;;;27.92;52.46;101626.19;5032699;28;20294;-91
2023/07/12 10:31:34;;;;;;;;;;;;;;;27.91;52.24;101609.19;5029933;28;20016;-91
2023/07/12 10:46:32;;;;;;;;;;;;;;;27.93;52.28;101612.75;4993191;28;19925;-91
2023/07/12 10:52:29;;;;;;;;;;;;;;;27.97;51.91;101619.91;4993784;28;19937;-91
2023/07/12 11:07:53;;;;;;;;;;;;;;;27.99;51.87;101609.16;4956015;29;19933;-91
2023/07/12 11:13:32;;;;;;;;;;;;;;;28.00;51.82;101598.44;4952714;28;19922;-90
2023/07/12 11:19:42;;;;;;;;;;;;;;;28.04;51.86;101587.66;4954004;28;19925;-91
2023/07/12 11:25:24;;;;;;;;;;;;;;;28.02;51.83;101591.25;4945059;29;20086;-92
2023/07/12 11:54:24;;;;;;;;;;;;;;;28.10;51.03;101571.50;4950337;28;19922;-91
2023/07/12 12:06:00;;;;;;;;;;;;;;;28.10;50.90;101548.22;4953356;29;19925;-89
2023/07/12 12:24:09;;;;;;;;;;;;;;;28.12;50.58;101543.72;5028323;28;19917;-95
2023/07/12 12:29:37;;;;;;;;;;;;;;;28.12;50.61;101534.78;5031315;28;19974;-94
2023/07/12 12:35:10;;;;;;;;;;;;;;;28.12;50.88;101538.38;5029138;28;19971;-91
2023/07/12 12:40:38;;;;;;;;;;;;;;;28.15;50.56;101545.50;5029494;28;19972;-91
2023/07/12 12:46:09;;;;;;;;;;;;;;;28.15;50.64;101546.41;5031058;28;19971;-91
2023/07/12 12:51:37;;;;;;;;;;;;;;;28.17;50.73;101546.38;5020555;28;20006;-90
2023/07/12 12:57:06;;;;;;;;;;;;;;;28.15;50.51;101535.69;5017952;28;19920;-89
2023/07/12 13:02:35;;;;;;;;;;;;;;;28.15;50.58;101537.44;5026725;28;19917;-88
2023/07/12 13:14:12;;;;;;;;;;;;;;;28.17;50.66;101554.44;5035204;28;19917;-89
2023/07/12 13:16:58;;;;;;;;;;;;;;;28.17;50.53;101551.75;4984458;28;19922;-89
2023/07/12 13:19:24;;;;;;;;;;;;;;;28.16;50.85;101537.44;4985485;28;19914;-90
2023/07/12 13:24:53;;;;;;;;;;;;;;;28.18;50.54;101537.44;4986587;28;20458;-92
2023/07/12 13:30:59;;;;;;;;;;;;;;;28.18;50.47;101538.31;5036548;28;19920;-90
2023/07/12 13:36:50;;;;;;;;;;;;;;;28.18;50.11;101529.38;4919197;29;19922;-90
2023/07/12 13:39:37;;;;;;;;;;;;;;;28.17;50.64;101532.97;4915122;29;19955;-90
2023/07/12 13:45:06;;;;;;;;;;;;;;;28.16;50.68;101521.34;4953987;29;20005;-91
2023/07/12 14:03:05;;;;;;;;;;;;;;;28.15;50.52;101516.88;4946327;28;19915;-91
2023/07/12 14:08:33;;;;;;;;;;;;;;;28.15;50.57;101519.56;5026002;28;19958;-88
2023/07/12 14:14:01;;;;;;;;;;;;;;;28.17;50.23;101522.22;5027418;28;19920;-89
2023/07/12 14:19:31;;;;;;;;;;;;;;;28.17;50.38;101516.84;5028425;28;19920;-89
2023/07/12 14:31:12;;;;;;;;;;;;;;;28.14;50.13;101508.81;5036241;28;19955;-90
2023/07/12 14:46:20;;;;;;;;;;;;;;;28.18;49.91;101499.84;5032086;28;19936;-90
2023/07/12 14:57:38;;;;;;;;;;;;;;;28.19;49.65;101489.09;5018080;28;19915;-89
2023/07/12 15:03:20;;;;;;;;;;;;;;;28.21;49.94;101486.38;5042470;28;20010;-92
2023/07/12 15:08:49;;;;;;;;;;;;;;;28.04;48.27;101483.81;5021924;28;20011;-89
2023/07/12 15:14:22;;;;;;;;;;;;;;;28.02;48.59;101475.78;5039376;28;19916;-91
2023/07/12 15:19:52;;;;;;;;;;;;;;;27.91;50.22;101488.38;5021607;28;19924;-94
2023/07/12 15:25:21;;;;;;;;;;;;;;;27.97;51.08;101477.59;5016146;28;19940;-92
2023/07/12 15:30:50;;;;;;;;;;;;;;;28.07;50.64;101488.25;5028987;28;20004;-95
2023/07/12 15:36:18;;;;;;;;;;;;;;;28.10;50.84;101483.78;5026678;28;19917;-91
2023/07/12 15:41:48;;;;;;;;;;;;;;;28.10;50.87;101483.78;5015208;28;19995;-91
2023/07/12 15:47:25;;;;;;;;;;;;;;;28.14;50.88;101482.84;5022209;28;20389;-91
2023/07/12 15:52:58;;;;;;;;;;;;;;;28.13;51.01;101458.69;5029114;28;19920;-91
2023/07/12 15:58:33;;;;;;;;;;;;;;;28.16;51.20;101469.41;5021928;28;19920;-91
2023/07/12 16:04:06;;;;;;;;;;;;;;;28.17;51.06;101461.34;5020621;28;19924;-88
2023/07/12 16:09:39;;;;;;;;;;;;;;;28.19;51.09;101454.19;5028220;28;20370;-91
2023/07/12 16:15:17;;;;;;;;;;;;;;;28.21;51.03;101456.81;5025909;28;19963;-89
2023/07/12 16:20:56;;;;;;;;;;;;;;;28.23;51.24;101455.03;5031709;28;20006;-91
2023/07/12 16:26:31;;;;;;;;;;;;;;;28.26;51.23;101456.78;5017400;28;19939;-91
2023/07/12 16:41:37;;;;;;;;;;;;;;;28.36;51.72;101445.06;4991028;28;19921;-87
2023/07/12 16:48:04;;;;;;;;;;;;;;;28.37;51.65;101444.19;4987779;28;19921;-88
2023/07/12 16:53:32;;;;;;;;;;;;;;;28.39;51.50;101437.00;4991030;28;19924;-85
2023/07/12 17:05:18;;;;;;;;;;;;;;;28.41;51.37;101441.44;4983868;28;19925;-88
2023/07/12 17:20:24;;;;;;;;;;;;;;;28.41;51.63;101443.25;4991126;28;19917;-88
2023/07/12 17:29:18;;;;;;;;;;;;;;;28.38;51.89;101444.13;4989761;28;19944;-89
2023/07/12 17:35:27;;;;;;;;;;;;;;;28.36;51.85;101440.59;5000226;28;20004;-92
2023/07/12 17:54:05;;;;;;;;;;;;;;;28.33;52.23;101459.41;4980125;28;20017;-90
2023/07/12 18:05:43;;;;;;;;;;;;;;;28.29;53.74;101459.47;4985682;28;20587;-88
2023/07/12 18:08:12;;;;;;;;;;;;;;;28.26;53.70;101451.41;4973009;28;20395;-84
2023/07/12 18:13:41;;;;;;;;;;;;;;;28.33;53.15;101466.59;4993432;28;19918;-87
2023/07/12 18:19:09;;;;;;;;;;;;;;;28.31;53.01;101480.03;4989867;28;19916;-86
2023/07/12 18:24:37;;;;;;;;;;;;;;;28.31;52.91;101485.41;4991237;28;19936;-86
2023/07/12 18:30:06;;;;;;;;;;;;;;;28.30;53.18;101486.31;5009051;28;19925;-87
2023/07/12 18:35:34;;;;;;;;;;;;;;;28.29;52.78;101491.69;5010987;28;19944;-88
2023/07/12 18:41:02;;;;;;;;;;;;;;;28.27;53.32;101489.00;5013448;28;20283;-88
2023/07/12 18:46:30;;;;;;;;;;;;;;;28.29;53.05;101500.66;5013331;28;19919;-88
2023/07/12 18:51:58;;;;;;;;;;;;;;;28.28;53.04;101511.38;5030278;28;20389;-89
2023/07/12 18:57:26;;;;;;;;;;;;;;;28.28;53.05;101506.94;5028207;28;19991;-89
2023/07/12 19:02:54;;;;;;;;;;;;;;;28.30;52.98;101509.59;5031724;28;19921;-88
2023/07/12 19:08:24;;;;;;;;;;;;;;;28.28;53.08;101512.31;5033155;28;19920;-86
2023/07/12 19:20:03;;;;;;;;;;;;;;;28.29;53.03;101526.63;5022592;28;19936;-91
2023/07/12 19:25:33;;;;;;;;;;;;;;;28.27;53.37;101513.19;5020978;28;20020;-90
2023/07/12 19:40:51;;;;;;;;;;;;;;;28.26;53.51;101514.13;5033324;28;19913;-93
2023/07/12 19:46:26;;;;;;;;;;;;;;;28.27;53.56;101515.00;5031861;28;20294;-89
2023/07/12 19:51:57;;;;;;;;;;;;;;;28.27;53.65;101513.19;5044717;28;19920;-93
2023/07/12 20:10:02;;;;;;;;;;;;;;;28.26;53.70;101495.31;4954205;29;19920;-91
2023/07/12 20:21:37;;;;;;;;;;;;;;;28.26;54.04;101489.94;4947577;29;19937;-90
2023/07/12 20:27:17;;;;;;;;;;;;;;;28.26;54.05;101478.28;5034435;28;19924;-91
2023/07/12 20:33:06;;;;;;;;;;;;;;;28.25;53.96;101472.03;4987557;28;20315;-90
2023/07/12 20:38:34;;;;;;;;;;;;;;;28.26;54.20;101464.84;4994186;28;20004;-89
2023/07/12 20:44:02;;;;;;;;;;;;;;;28.24;54.21;101467.56;4990014;28;19921;-87
2023/07/12 20:49:38;;;;;;;;;;;;;;;28.25;54.36;101484.56;4986758;28;19925;-86
2023/07/12 20:55:07;;;;;;;;;;;;;;;28.24;54.42;101478.31;4968373;28;19949;-87
2023/07/12 21:00:34;;;;;;;;;;;;;;;28.23;54.42;101487.25;4984061;28;20381;-89
2023/07/12 21:06:03;;;;;;;;;;;;;;;28.23;54.55;101485.44;5017418;28;19921;-89
2023/07/12 21:11:32;;;;;;;;;;;;;;;28.21;54.55;101481.91;5019780;28;20020;-90
2023/07/12 21:17:01;;;;;;;;;;;;;;;28.21;54.63;101471.19;5020981;28;19928;-91
2023/07/12 21:22:30;;;;;;;;;;;;;;;28.22;54.83;101480.13;5011138;28;19935;-88
2023/07/12 21:27:58;;;;;;;;;;;;;;;28.22;55.15;101480.13;5020699;28;20036;-90
2023/07/12 21:33:27;;;;;;;;;;;;;;;28.20;54.98;101477.44;5012039;28;20574;-91
2023/07/12 21:38:55;;;;;;;;;;;;;;;28.20;54.89;101477.44;5015909;28;19943;-90
2023/07/12 21:44:23;;;;;;;;;;;;;;;28.20;55.09;101474.75;5010386;28;19971;-89
2023/07/12 21:49:52;;;;;;;;;;;;;;;28.19;55.46;101475.66;5019663;28;19924;-89
2023/07/12 21:55:22;;;;;;;;;;;;;;;28.18;55.50;101486.41;5022448;28;19920;-89
2023/07/12 22:00:50;;;;;;;;;;;;;;;28.18;55.41;101489.09;5015006;28;19968;-90
2023/07/12 22:06:19;;;;;;;;;;;;;;;28.18;55.91;101478.34;5030537;28;20036;-91
2023/07/12 22:11:47;;;;;;;;;;;;;;;28.17;55.62;101472.09;5029447;28;19919;-87
2023/07/12 22:17:29;;;;;;;;;;;;;;;28.17;55.92;101457.75;5022760;28;19995;-91
2023/07/12 22:22:57;;;;;;;;;;;;;;;28.17;55.69;101464.03;5034792;28;19961;-89
2023/07/12 22:28:25;;;;;;;;;;;;;;;28.17;55.76;101461.34;5032369;28;19971;-89
2023/07/12 22:33:54;;;;;;;;;;;;;;;28.19;55.57;101464.00;5035700;28;19919;-90
2023/07/12 22:39:23;;;;;;;;;;;;;;;28.18;55.73;101465.81;5032878;28;20420;-90
2023/07/12 22:44:51;;;;;;;;;;;;;;;28.17;55.83;101466.72;5032336;28;20468;-90
2023/07/12 22:50:21;;;;;;;;;;;;;;;28.16;55.91;101448.81;5036333;28;19924;-90
2023/07/12 22:55:56;;;;;;;;;;;;;;;28.16;55.88;101440.75;5028550;28;19936;-90
2023/07/12 23:01:25;;;;;;;;;;;;;;;28.14;55.95;101458.69;5034891;28;19920;-90
2023/07/12 23:06:53;;;;;;;;;;;;;;;28.14;55.98;101447.06;5035346;28;19939;-89
2023/07/12 23:12:21;;;;;;;;;;;;;;;28.15;55.80;101448.81;5024241;28;20024;-91
2023/07/12 23:17:51;;;;;;;;;;;;;;;28.14;55.71;101439.88;5029785;28;19955;-90
2023/07/12 23:23:19;;;;;;;;;;;;;;;28.13;56.02;101442.56;5036399;28;19960;-89
2023/07/12 23:28:47;;;;;;;;;;;;;;;28.11;55.89;101426.50;5042810;28;19971;-88
2023/07/12 23:34:16;;;;;;;;;;;;;;;28.11;55.85;101433.63;5031127;28;20368;-89
2023/07/12 23:39:47;;;;;;;;;;;;;;;28.11;56.05;101428.25;5029988;28;19963;-90
2023/07/12 23:45:16;;;;;;;;;;;;;;;28.10;55.98;101422.00;5029674;28;19924;-90
2023/07/12 23:50:45;;;;;;;;;;;;;;;28.10;56.20;101432.75;5021870;28;19924;-91
2023/07/12 23:56:13;;;;;;;;;;;;;;;28.09;56.19;101413.97;5022333;28;20012;-90
